createdAt,value
2023-04-02T00:00:10.056Z,0.00
2023-04-02T00:02:55.157Z,0.20
2023-04-02T00:05:30.557Z,0.10
2023-04-02T00:08:00.531Z,0.10
2023-04-02T00:10:39.855Z,0.00
2023-04-02T00:15:41.699Z,0.10
2023-04-02T00:18:15.169Z,0.00
2023-04-02T00:20:47.108Z,0.23
2023-04-02T00:23:15.051Z,0.00
2023-04-02T00:25:45.847Z,0.00
2023-04-02T00:28:15.502Z,0.10
2023-04-02T00:30:55.961Z,0.10
2023-04-02T00:33:27.071Z,0.10
2023-04-02T00:35:55.506Z,0.00
2023-04-02T00:38:28.766Z,0.03
2023-04-02T00:40:58.683Z,0.10
2023-04-02T00:43:28.404Z,0.10
2023-04-02T00:45:59.353Z,0.03
2023-04-02T02:02:50.740Z,0.67
2023-04-02T02:05:23.203Z,0.77
2023-04-02T02:07:53.030Z,1.23
2023-04-02T02:10:28.020Z,1.00
2023-04-02T02:12:55.837Z,1.20
2023-04-02T02:15:24.224Z,0.67
2023-04-02T02:17:58.675Z,0.82
2023-04-02T02:20:28.226Z,0.70
2023-04-02T04:56:18.578Z,1.33
2023-04-02T04:59:32.618Z,1.07
2023-04-02T05:01:59.991Z,1.95
2023-04-02T05:04:40.155Z,1.70
2023-04-02T05:07:26.603Z,2.03
2023-04-02T05:10:22.329Z,2.58
2023-04-02T05:12:59.513Z,2.73
2023-04-02T05:15:36.589Z,2.93
2023-04-02T05:18:39.650Z,2.10
2023-04-02T05:21:33.710Z,2.00
2023-04-02T05:24:38.456Z,2.03
2023-04-02T05:50:43.551Z,1.63
2023-04-02T05:53:18.316Z,1.87
2023-04-02T05:55:54.432Z,2.30
2023-04-02T05:58:37.520Z,1.80
2023-04-02T06:01:48.427Z,1.90
2023-04-02T06:04:35.821Z,1.47
2023-04-02T06:07:10.333Z,2.00
2023-04-02T06:09:55.116Z,1.60
2023-04-02T06:12:29.996Z,1.33
2023-04-02T06:14:58.170Z,0.80
2023-04-02T06:17:28.604Z,1.70
2023-04-02T06:19:59.975Z,1.85
2023-04-02T06:22:38.293Z,1.27
2023-04-02T06:25:17.626Z,2.23
2023-04-02T06:27:47.133Z,2.17
2023-04-02T06:30:26.843Z,1.37
2023-04-02T06:32:54.024Z,1.57
2023-04-02T06:35:21.858Z,1.50
2023-04-02T06:38:05.119Z,1.40
2023-04-02T06:40:56.855Z,0.80
2023-04-02T06:43:40.139Z,0.80
2023-04-02T06:46:45.205Z,1.50
2023-04-02T06:49:29.012Z,1.63
2023-04-02T06:52:02.545Z,1.17
2023-04-02T06:54:30.718Z,0.43
2023-04-02T06:57:02.016Z,1.13
2023-04-02T06:59:41.159Z,0.57
2023-04-02T07:02:28.798Z,0.95
2023-04-02T07:05:09.434Z,0.63
2023-04-02T07:07:40.069Z,0.90
2023-04-02T07:10:10.852Z,0.40
2023-04-02T07:12:38.001Z,0.20
2023-04-02T07:15:06.223Z,0.10
2023-04-02T07:17:33.895Z,0.30
2023-04-02T07:20:01.151Z,0.20
2023-04-02T07:22:28.170Z,0.38
2023-04-02T07:24:58.975Z,0.20
2023-04-02T07:27:26.484Z,0.22
2023-04-02T07:29:53.515Z,0.45
2023-04-02T07:32:20.542Z,0.10
2023-04-02T07:34:47.679Z,0.30
2023-04-02T07:37:15.046Z,0.30
2023-04-02T07:39:42.515Z,0.00
2023-04-02T07:42:10.458Z,0.10
2023-04-02T07:44:37.825Z,0.20
2023-04-02T07:47:04.859Z,0.20
2023-04-02T07:49:31.788Z,0.30
2023-04-02T07:51:58.774Z,0.30
2023-04-02T07:54:27.419Z,0.10
2023-04-02T07:56:54.419Z,0.10
2023-04-02T07:59:21.778Z,0.20
2023-04-02T08:01:48.882Z,0.10
2023-04-02T08:04:19.213Z,0.08
2023-04-02T08:06:47.980Z,0.10
2023-04-02T08:09:16.380Z,0.10
2023-04-02T08:11:44.069Z,0.50
2023-04-02T08:14:11.041Z,0.17
2023-04-02T08:17:04.685Z,0.10
2023-04-02T08:19:32.730Z,0.10
2023-04-02T08:22:02.055Z,0.10
2023-04-02T08:24:28.952Z,0.20
2023-04-02T08:26:55.954Z,0.45
2023-04-02T08:29:22.919Z,0.20
2023-04-02T08:31:50.159Z,0.10
2023-04-02T08:34:17.189Z,0.00
2023-04-02T08:36:45.796Z,0.10
2023-04-02T08:39:13.678Z,0.10
2023-04-02T08:42:04.488Z,0.00
2023-04-02T08:44:40.053Z,0.20
2023-04-02T08:47:08.960Z,0.30
2023-04-02T08:49:57.945Z,0.15
2023-04-02T08:52:37.550Z,0.10
2023-04-02T08:55:33.355Z,0.20
2023-04-02T08:58:31.886Z,0.10
2023-04-02T09:01:02.817Z,0.20
2023-04-02T09:03:36.544Z,0.20
2023-04-02T09:06:05.436Z,0.20
2023-04-02T09:08:33.383Z,0.10
2023-04-02T09:11:00.291Z,0.10
2023-04-02T09:13:29.429Z,0.10
2023-04-02T09:16:04.134Z,0.30
2023-04-02T09:18:33.267Z,0.10
2023-04-02T09:23:30.872Z,0.35
2023-04-02T09:26:04.149Z,0.17
2023-04-02T09:28:32.241Z,0.10
2023-04-02T09:31:24.571Z,0.10
2023-04-02T09:33:54.896Z,0.20
2023-04-02T09:36:38.848Z,0.82
2023-04-02T09:39:28.679Z,0.13
2023-04-02T09:42:05.494Z,0.10
2023-04-02T09:44:33.412Z,0.10
2023-04-02T09:47:06.760Z,0.55
2023-04-02T09:49:37.037Z,0.20
2023-04-02T09:52:28.678Z,0.10
2023-04-02T09:55:16.214Z,0.20
2023-04-02T09:57:43.750Z,0.10
2023-04-02T10:00:30.594Z,0.20
2023-04-02T10:03:05.298Z,0.30
2023-04-02T10:08:20.620Z,0.10
2023-04-02T10:10:53.322Z,0.20
2023-04-02T10:13:32.174Z,0.10
2023-04-02T10:16:02.697Z,0.10
2023-04-02T10:18:48.859Z,0.10
2023-04-02T10:21:25.444Z,0.10
2023-04-02T10:23:52.884Z,0.10
2023-04-02T10:26:41.509Z,0.10
2023-04-02T10:29:08.545Z,0.10
2023-04-02T10:31:49.931Z,0.10
2023-04-02T10:34:25.162Z,0.10
2023-04-02T10:37:18.331Z,0.10
2023-04-02T10:39:50.195Z,0.10
2023-04-02T10:42:17.207Z,0.03
2023-04-02T10:45:05.238Z,0.10
2023-04-02T10:47:47.142Z,0.10
2023-04-02T10:50:26.778Z,0.10
2023-04-02T10:53:09.264Z,0.10
2023-04-02T10:55:44.100Z,0.05
2023-04-02T10:58:25.414Z,0.00
2023-04-02T11:01:00.674Z,0.20
2023-04-02T11:03:37.600Z,0.10
2023-04-02T11:06:17.678Z,0.10
2023-04-02T11:08:48.668Z,0.15
2023-04-02T11:11:32.337Z,0.13
2023-04-02T11:14:12.252Z,0.08
2023-04-02T11:16:44.017Z,0.30
2023-04-02T11:19:17.960Z,0.30
2023-04-02T11:22:01.872Z,0.10
2023-04-02T11:24:33.261Z,0.00
2023-04-02T11:27:12.670Z,0.00
2023-04-02T11:30:09.211Z,0.10
2023-04-02T11:32:42.772Z,0.43
2023-04-02T11:35:27.907Z,0.10
2023-04-02T11:37:57.756Z,0.20
2023-04-02T11:40:44.778Z,0.20
2023-04-02T11:43:33.666Z,0.10
2023-04-02T11:50:58.900Z,0.22
2023-04-02T11:53:35.055Z,0.08
2023-04-02T11:56:09.557Z,0.10
2023-04-02T11:58:46.501Z,0.10
2023-04-02T12:01:34.462Z,0.10
2023-04-02T12:04:20.093Z,0.10
2023-04-02T12:07:27.408Z,0.10
2023-04-02T12:10:01.020Z,0.05
2023-04-02T12:12:34.750Z,0.00
2023-04-02T12:15:01.908Z,0.10
2023-04-02T12:17:38.346Z,0.10
2023-04-02T12:20:09.552Z,0.10
2023-04-02T12:22:40.976Z,0.10
2023-04-02T12:25:32.929Z,0.10
2023-04-02T12:28:20.297Z,0.08
2023-04-02T12:30:48.672Z,0.10
2023-04-02T12:33:22.447Z,0.20
2023-04-02T12:35:51.434Z,0.20
2023-04-02T12:41:01.998Z,4.35
2023-04-02T12:46:09.329Z,2.08
2023-04-02T12:48:36.678Z,0.90
2023-04-02T12:51:04.633Z,0.20
2023-04-02T12:53:40.698Z,0.10
2023-04-02T12:56:11.348Z,0.10
2023-04-02T12:58:45.511Z,0.10
2023-04-02T13:01:32.202Z,0.10
2023-04-02T13:04:08.174Z,0.20
2023-04-02T13:06:36.721Z,0.20
2023-04-02T13:09:07.405Z,0.22
2023-04-02T13:11:39.476Z,0.20
2023-04-02T13:14:18.910Z,0.15
2023-04-02T13:16:46.357Z,0.10
2023-04-02T13:19:25.785Z,0.13
2023-04-02T13:21:54.411Z,0.10
2023-04-02T13:24:24.217Z,0.00
2023-04-02T13:26:54.008Z,0.20
2023-04-02T13:29:34.325Z,0.00
2023-04-02T13:32:07.156Z,0.20
2023-04-02T13:34:34.149Z,0.00
2023-04-02T13:37:01.325Z,0.00
2023-04-02T13:39:30.470Z,0.10
2023-04-02T13:41:59.818Z,0.10
2023-04-02T13:44:29.580Z,0.00
2023-04-02T13:46:57.327Z,0.10
2023-04-02T13:49:27.764Z,0.10
2023-04-02T13:52:03.370Z,0.25
2023-04-02T13:54:37.581Z,0.00
2023-04-02T13:57:04.772Z,0.20
2023-04-02T13:59:31.787Z,0.30
2023-04-02T14:02:06.838Z,1.35
2023-04-02T14:04:38.868Z,0.45
2023-04-02T14:07:33.370Z,0.20
2023-04-02T14:10:22.419Z,0.20
2023-04-02T14:13:02.030Z,2.22
2023-04-02T14:15:52.846Z,0.10
2023-04-02T14:18:22.787Z,0.10
2023-04-02T14:21:14.906Z,0.08
2023-04-02T14:23:53.001Z,0.10
2023-04-02T14:26:48.630Z,0.10
2023-04-02T14:29:19.020Z,0.10
2023-04-02T14:32:10.823Z,0.10
2023-04-02T14:34:47.976Z,0.20
2023-04-02T14:37:17.969Z,0.00
2023-04-02T14:40:11.063Z,0.10
2023-04-02T14:42:47.627Z,0.30
2023-04-02T14:45:39.137Z,0.10
2023-04-02T14:48:21.589Z,2.85
2023-04-02T14:50:49.361Z,2.28
2023-04-02T14:53:24.460Z,0.28
2023-04-02T14:55:53.016Z,0.10
2023-04-02T14:58:26.792Z,0.10
2023-04-02T15:01:14.195Z,0.10
2023-04-02T15:03:53.869Z,0.10
2023-04-02T15:06:34.471Z,0.10
2023-04-02T15:09:21.389Z,0.20
2023-04-02T15:11:56.576Z,0.15
2023-04-02T15:14:44.546Z,0.20
2023-04-02T15:17:12.838Z,0.30
2023-04-02T15:19:40.087Z,0.10
2023-04-02T15:22:21.933Z,0.13
2023-04-02T15:25:07.894Z,0.20
2023-04-02T15:27:55.894Z,0.28
2023-04-02T15:30:25.149Z,0.20
2023-04-02T15:32:54.946Z,0.30
2023-04-02T15:35:41.766Z,0.20
2023-04-02T15:38:35.856Z,0.10
2023-04-02T15:41:23.640Z,0.40
2023-04-02T15:44:02.661Z,0.30
2023-04-02T15:46:41.742Z,0.40
2023-04-02T15:49:20.795Z,0.30
2023-04-02T15:51:50.551Z,0.20
2023-04-02T15:54:42.072Z,0.10
2023-04-02T15:57:40.034Z,0.10
2023-04-02T16:00:30.976Z,0.38
2023-04-02T16:03:10.096Z,0.20
2023-04-02T16:05:55.888Z,0.20
2023-04-02T16:08:31.250Z,0.17
2023-04-02T16:10:58.405Z,0.22
2023-04-02T16:13:37.230Z,0.13
2023-04-02T16:16:06.149Z,0.22
2023-04-02T16:18:48.402Z,0.10
2023-04-02T16:21:22.599Z,0.10
2023-04-02T16:23:49.822Z,0.20
2023-04-02T16:26:26.100Z,0.22
2023-04-02T16:29:11.677Z,0.20
2023-04-02T16:31:44.394Z,1.50
2023-04-02T16:34:32.540Z,1.42
2023-04-02T16:37:14.844Z,1.50
2023-04-02T16:40:27.356Z,3.85
2023-04-02T16:43:03.103Z,1.80
2023-04-02T16:46:15.668Z,3.70
2023-04-02T16:48:58.151Z,0.82
2023-04-02T16:51:48.908Z,16.17
2023-04-02T16:54:38.827Z,15.27
2023-04-02T16:57:43.195Z,13.05
2023-04-02T17:00:20.161Z,8.10
2023-04-02T17:03:23.532Z,14.13
2023-04-02T17:06:06.321Z,15.20
2023-04-02T17:08:42.876Z,21.40
2023-04-02T17:11:21.712Z,18.38
2023-04-02T17:13:55.380Z,15.13
2023-04-02T17:16:37.117Z,15.13
2023-04-02T17:19:10.633Z,14.38
2023-04-02T17:21:39.834Z,12.40
2023-04-02T17:24:21.041Z,23.95
2023-04-02T17:27:12.860Z,16.58
2023-04-02T17:29:43.517Z,22.02
2023-04-02T17:32:26.287Z,22.13
2023-04-02T17:34:53.604Z,22.02
2023-04-02T17:37:31.775Z,18.25
2023-04-02T17:40:01.836Z,17.58
2023-04-02T17:42:48.801Z,19.98
2023-04-02T17:45:38.914Z,37.58
2023-04-02T17:48:34.664Z,36.42
2023-04-02T17:51:07.216Z,15.80
2023-04-02T17:53:45.949Z,9.43
2023-04-02T17:56:38.755Z,6.03
2023-04-02T17:59:34.646Z,4.63
2023-04-02T18:02:22.513Z,4.82
2023-04-02T18:05:01.187Z,7.93
2023-04-02T18:07:31.127Z,8.27
2023-04-02T18:10:13.744Z,19.67
2023-04-02T18:13:07.634Z,22.65
2023-04-02T18:15:54.007Z,11.10
2023-04-02T18:18:40.870Z,8.07
2023-04-02T18:21:19.904Z,6.20
2023-04-02T18:24:05.198Z,5.95
2023-04-02T18:26:50.986Z,5.97
2023-04-02T18:29:58.906Z,7.22
2023-04-02T18:32:25.902Z,8.30
2023-04-02T18:35:07.221Z,7.40
2023-04-02T18:37:46.269Z,8.20
2023-04-02T18:40:23.010Z,8.02
2023-04-02T18:43:19.195Z,8.07
2023-04-02T18:46:20.298Z,11.18
2023-04-02T18:48:57.085Z,20.17
2023-04-02T18:51:26.889Z,37.25
2023-04-02T18:54:32.588Z,18.83
2023-04-02T18:57:03.147Z,28.98
2023-04-02T18:59:51.406Z,17.58
2023-04-02T19:02:29.908Z,20.88
2023-04-02T19:05:33.335Z,47.67
2023-04-02T19:08:17.126Z,39.53
2023-04-02T19:10:47.811Z,20.98
2023-04-02T19:13:17.392Z,59.35
2023-04-02T19:16:06.630Z,27.48
2023-04-02T19:18:52.746Z,29.75
2023-04-02T19:21:45.933Z,10.40
2023-04-02T19:24:36.673Z,14.50
2023-04-02T19:27:34.054Z,16.08
2023-04-02T19:30:35.404Z,15.23
2023-04-02T19:33:11.271Z,15.60
2023-04-02T19:35:54.177Z,25.15
2023-04-02T19:38:39.469Z,21.98
2023-04-02T19:41:18.915Z,23.08
2023-04-02T19:43:46.769Z,14.07
2023-04-02T19:46:13.826Z,16.08
2023-04-02T19:48:50.221Z,15.35
2023-04-02T19:51:17.207Z,14.27
2023-04-02T19:53:45.014Z,14.88
2023-04-02T19:56:12.030Z,15.80
2023-04-02T19:58:39.144Z,15.25
2023-04-02T20:01:06.769Z,37.30
2023-04-02T20:03:34.031Z,26.53
2023-04-02T20:06:01.869Z,41.83
2023-04-02T20:08:29.271Z,18.97
2023-04-02T20:10:58.930Z,17.27
2023-04-02T20:13:26.040Z,35.07
2023-04-02T20:15:52.956Z,17.83
2023-04-02T20:18:20.716Z,17.40
2023-04-02T20:20:49.128Z,60.00
2023-04-02T20:23:17.076Z,30.55
2023-04-02T20:25:46.597Z,43.47
2023-04-02T20:28:13.796Z,13.35
2023-04-02T20:30:41.365Z,13.10
2023-04-02T20:33:08.677Z,21.50
2023-04-02T20:35:37.920Z,19.57
2023-04-02T20:38:06.909Z,134.43
2023-04-02T20:40:34.606Z,16.30
2023-04-02T20:43:01.847Z,9.43
2023-04-02T20:45:29.588Z,11.20
2023-04-02T20:47:56.910Z,15.27
2023-04-02T20:50:23.977Z,31.20
2023-04-02T20:52:52.065Z,12.20
2023-04-02T20:55:19.112Z,9.23
2023-04-02T20:57:46.756Z,12.57
2023-04-02T21:00:14.955Z,14.13
2023-04-02T21:02:41.888Z,14.73
2023-04-02T21:05:09.245Z,9.27
2023-04-02T21:07:36.287Z,5.33
2023-04-02T21:10:03.523Z,7.00
2023-04-02T21:12:31.526Z,4.70
2023-04-02T21:15:01.798Z,7.30
2023-04-02T21:17:29.836Z,11.30
2023-04-02T21:19:56.801Z,9.33
2023-04-02T21:22:24.118Z,8.27
2023-04-02T21:24:51.558Z,9.97
2023-04-02T21:27:18.504Z,9.83
2023-04-02T21:29:45.613Z,12.63
2023-04-02T21:32:21.190Z,11.17
2023-04-02T21:34:48.835Z,11.17
2023-04-02T21:37:15.769Z,8.50
2023-04-02T21:39:42.737Z,7.27
2023-04-02T21:42:11.368Z,8.10
2023-04-02T21:44:38.386Z,5.38
2023-04-02T21:47:05.659Z,6.80
2023-04-02T21:49:32.796Z,7.97
2023-04-02T21:51:59.703Z,5.60
2023-04-02T21:54:26.760Z,10.50
2023-04-02T21:56:53.873Z,10.90
2023-04-02T21:59:21.043Z,7.70
2023-04-02T22:01:50.333Z,7.23
2023-04-02T22:04:25.528Z,6.28
2023-04-02T22:06:53.615Z,5.70
2023-04-02T22:09:24.359Z,5.03
2023-04-02T22:11:54.775Z,3.53
2023-04-02T22:14:22.750Z,2.97
2023-04-02T22:16:49.800Z,2.53
2023-04-02T22:19:16.863Z,2.80
2023-04-02T22:21:44.161Z,3.50
2023-04-02T22:24:16.313Z,2.97
2023-04-02T22:26:44.628Z,2.93
2023-04-02T22:29:11.981Z,3.43
2023-04-02T22:31:39.135Z,4.80
2023-04-02T22:34:06.939Z,4.37
2023-04-02T22:36:34.499Z,4.20
2023-04-02T22:39:05.477Z,4.37
2023-04-02T22:41:32.957Z,4.33
2023-04-02T22:44:01.676Z,4.60
2023-04-02T22:46:29.638Z,4.50
2023-04-02T22:48:56.804Z,4.13
2023-04-02T22:51:24.840Z,3.73
2023-04-02T22:53:54.345Z,4.80
2023-04-02T22:56:27.932Z,4.40
2023-04-02T22:58:54.930Z,2.60
2023-04-02T23:01:26.088Z,3.50
2023-04-02T23:03:55.036Z,3.33
2023-04-02T23:06:23.304Z,1.52
2023-04-02T23:08:52.079Z,1.90
2023-04-02T23:11:24.511Z,1.50
2023-04-02T23:13:53.907Z,2.20
2023-04-02T23:18:49.391Z,1.87
2023-04-02T23:21:17.854Z,1.90
2023-04-02T23:23:45.928Z,1.83
2023-04-02T23:26:19.549Z,1.63
2023-04-02T23:28:46.443Z,1.70
2023-04-02T23:31:16.071Z,1.80
2023-04-02T23:33:44.077Z,1.77
2023-04-02T23:36:19.514Z,3.00
2023-04-02T23:38:46.742Z,2.63
2023-04-02T23:41:17.774Z,2.30
2023-04-02T23:43:44.909Z,2.40
2023-04-02T23:46:11.942Z,2.40
2023-04-02T23:48:38.883Z,1.83
2023-04-02T23:51:06.154Z,2.17
2023-04-02T23:53:34.853Z,1.60
2023-04-02T23:56:01.927Z,1.60
2023-04-02T23:58:29.131Z,1.80
